Terminal Aerodrome Forecast
Issued by NWS

Home | Current Version | Previous Version | Text Only | Print | Product List | Glossary On
Versions: 1 2 3 4 5 6 7 8 9 10 11 12 13 14 15 16
000
FTUS44 KLIX 230533
TAFGPT
TAF
KGPT 230533Z 2306/2406 00000KT P6SM SKC
     FM231200 27004KT P6SM VCSH FEW050
     FM231800 17006KT P6SM VCTS SCT050CB
     FM240300 13002KT P6SM BKN250=

USA.gov is the U.S. government's official web portal to all federal, state and local government web resources and services.